createdAt,value
2018-09-18T00:00:43.260Z,50.20
2018-09-18T00:03:11.885Z,50.10
2018-09-18T00:05:40.671Z,50.50
2018-09-18T00:08:09.217Z,50.70
2018-09-18T00:10:37.776Z,50.70
2018-09-18T00:18:03.027Z,51.10
2018-09-18T00:20:31.623Z,51.00
2018-09-18T00:23:00.143Z,51.30
2018-09-18T00:25:28.687Z,51.30
2018-09-18T00:27:57.239Z,51.10
2018-09-18T00:30:26.846Z,51.30
2018-09-18T00:32:55.332Z,51.60
2018-09-18T00:35:24.508Z,51.60
2018-09-18T00:37:53.016Z,51.60
2018-09-18T00:40:21.601Z,52.60
2018-09-18T00:42:50.189Z,51.90
2018-09-18T00:47:47.012Z,51.80
2018-09-18T00:50:15.552Z,51.60
2018-09-18T00:52:44.399Z,51.90
2018-09-18T00:55:13.096Z,52.00
2018-09-18T00:57:42.549Z,52.00
2018-09-18T01:00:11.279Z,51.80
2018-09-18T01:05:08.274Z,52.10
2018-09-18T01:07:37.310Z,52.10
2018-09-18T01:10:06.327Z,52.30
2018-09-18T01:12:34.884Z,52.10
2018-09-18T01:15:03.788Z,52.20
2018-09-18T01:17:32.433Z,52.30
2018-09-18T01:20:01.048Z,52.50
2018-09-18T01:22:29.631Z,52.50
2018-09-18T01:24:58.228Z,52.40
2018-09-18T01:27:26.748Z,52.50
2018-09-18T01:29:55.299Z,52.70
2018-09-18T01:32:23.893Z,52.80
2018-09-18T01:37:21.259Z,53.00
2018-09-18T01:42:18.241Z,52.80
2018-09-18T01:47:20.803Z,53.20
2018-09-18T01:49:49.375Z,53.00
2018-09-18T01:52:18.032Z,53.50
2018-09-18T01:54:47.001Z,53.20
2018-09-18T01:57:15.574Z,53.00
2018-09-18T02:02:16.556Z,53.10
2018-09-18T02:05:00.563Z,53.10
2018-09-18T02:09:57.407Z,52.90
2018-09-18T02:12:26.050Z,52.70
2018-09-18T02:14:54.850Z,52.50
2018-09-18T02:17:23.592Z,52.40
2018-09-18T02:19:53.568Z,52.30
2018-09-18T02:22:22.168Z,52.30
2018-09-18T02:27:19.082Z,52.30
2018-09-18T02:29:47.727Z,52.30
2018-09-18T02:32:19.209Z,52.40
2018-09-18T02:34:47.852Z,52.50
2018-09-18T02:37:16.408Z,52.90
2018-09-18T02:39:45.036Z,52.80
2018-09-18T02:44:41.872Z,52.90
2018-09-18T02:47:10.468Z,53.00
2018-09-18T02:54:35.427Z,53.00
2018-09-18T02:57:07.309Z,53.00
2018-09-18T02:59:35.825Z,53.10
2018-09-18T03:02:04.432Z,53.10
2018-09-18T03:04:33.003Z,53.40
2018-09-18T03:07:04.024Z,53.60
2018-09-18T03:09:34.740Z,53.50
2018-09-18T03:12:12.325Z,53.60
2018-09-18T03:14:41.012Z,53.50
2018-09-18T03:17:20.767Z,53.60
2018-09-18T03:19:49.309Z,53.70
2018-09-18T03:22:23.835Z,53.60
2018-09-18T03:24:52.534Z,53.80
2018-09-18T03:27:21.102Z,53.70
2018-09-18T03:29:49.613Z,53.70
2018-09-18T03:32:18.141Z,53.80
2018-09-18T03:34:46.819Z,53.70
2018-09-18T03:37:15.300Z,53.60
2018-09-18T03:39:43.837Z,53.60
2018-09-18T03:42:12.397Z,53.50
2018-09-18T03:44:41.008Z,53.70
2018-09-18T03:47:09.621Z,53.50
2018-09-18T03:49:38.221Z,53.50
2018-09-18T03:52:06.863Z,53.50
2018-09-18T03:54:35.478Z,53.40
2018-09-18T03:59:32.154Z,53.40
2018-09-18T04:02:00.616Z,53.40
2018-09-18T04:04:29.108Z,53.40
2018-09-18T04:06:57.581Z,53.20
2018-09-18T04:09:26.111Z,53.40
2018-09-18T04:11:54.669Z,54.10
2018-09-18T04:14:23.151Z,53.40
2018-09-18T04:16:51.654Z,53.40
2018-09-18T04:19:20.122Z,53.60
2018-09-18T04:21:48.677Z,53.60
2018-09-18T04:26:45.393Z,53.60
2018-09-18T04:29:13.885Z,53.50
2018-09-18T04:31:42.346Z,53.60
2018-09-18T04:34:10.967Z,53.60
2018-09-18T04:36:39.427Z,53.60
2018-09-18T04:39:09.748Z,53.80
2018-09-18T04:41:38.304Z,53.60
2018-09-18T04:44:14.748Z,53.80
2018-09-18T04:46:43.365Z,53.70
2018-09-18T04:49:11.915Z,53.70
2018-09-18T04:51:40.559Z,53.80
2018-09-18T04:54:09.257Z,53.90
2018-09-18T04:56:37.764Z,54.00
2018-09-18T04:59:06.612Z,54.00
2018-09-18T05:01:35.600Z,54.10
2018-09-18T05:04:04.195Z,54.00
2018-09-18T05:06:32.752Z,54.10
2018-09-18T05:09:01.410Z,54.20
2018-09-18T05:11:29.931Z,53.80
2018-09-18T05:13:58.674Z,54.00
2018-09-18T05:16:27.430Z,53.70
2018-09-18T05:21:24.211Z,53.60
2018-09-18T05:23:53.567Z,53.50
2018-09-18T05:26:22.161Z,53.70
2018-09-18T05:28:50.756Z,53.60
2018-09-18T05:31:20.397Z,53.70
2018-09-18T05:33:50.333Z,53.60
2018-09-18T05:36:20.182Z,53.60
2018-09-18T05:38:51.868Z,53.80
2018-09-18T05:41:20.561Z,53.80
2018-09-18T05:43:49.711Z,53.70
2018-09-18T05:46:18.386Z,53.60
2018-09-18T05:48:47.010Z,54.20
2018-09-18T05:51:15.655Z,53.50
2018-09-18T05:53:44.487Z,53.50
2018-09-18T05:56:13.198Z,53.50
2018-09-18T05:58:41.932Z,53.60
2018-09-18T06:01:10.621Z,53.50
2018-09-18T06:06:07.521Z,53.40
2018-09-18T06:08:36.160Z,53.40
2018-09-18T06:13:33.087Z,53.10
2018-09-18T06:16:01.769Z,53.00
2018-09-18T06:18:30.460Z,53.00
2018-09-18T06:21:00.050Z,52.90
2018-09-18T06:23:28.989Z,52.90
2018-09-18T06:25:58.437Z,52.80
2018-09-18T06:28:27.208Z,52.70
2018-09-18T06:30:56.119Z,52.70
2018-09-18T06:33:24.665Z,52.60
2018-09-18T06:35:54.609Z,52.50
2018-09-18T06:38:23.244Z,52.40
2018-09-18T06:40:51.875Z,52.20
2018-09-18T06:43:20.603Z,52.20
2018-09-18T06:48:17.633Z,52.00
2018-09-18T06:50:46.119Z,51.80
2018-09-18T06:53:14.595Z,51.70
2018-09-18T06:55:43.105Z,51.50
2018-09-18T06:58:11.766Z,51.40
2018-09-18T07:00:40.291Z,51.20
2018-09-18T07:03:08.864Z,50.90
2018-09-18T07:05:37.432Z,51.60
2018-09-18T07:08:06.004Z,50.70
2018-09-18T07:10:34.612Z,50.60
2018-09-18T07:13:04.114Z,50.50
2018-09-18T07:15:32.813Z,50.30
2018-09-18T07:18:01.583Z,50.10
2018-09-18T07:20:30.288Z,50.00
2018-09-18T07:22:59.003Z,49.90
2018-09-18T07:25:27.660Z,49.60
2018-09-18T07:27:56.388Z,49.60
2018-09-18T07:30:24.912Z,50.20
2018-09-18T07:32:53.392Z,49.40
2018-09-18T07:35:22.080Z,48.60
2018-09-18T07:37:51.797Z,48.50
2018-09-18T07:42:49.431Z,48.30
2018-09-18T07:45:18.053Z,48.30
2018-09-18T07:47:46.709Z,48.00
2018-09-18T07:50:15.567Z,47.80
2018-09-18T07:52:44.179Z,47.70
2018-09-18T07:55:14.029Z,48.10
2018-09-18T07:57:44.488Z,47.10
2018-09-18T08:02:45.491Z,46.90
2018-09-18T08:05:14.213Z,46.50
2018-09-18T08:10:11.096Z,46.20
2018-09-18T08:12:39.711Z,45.80
2018-09-18T08:15:08.328Z,45.80
2018-09-18T08:17:36.965Z,45.50
2018-09-18T08:20:05.695Z,45.40
2018-09-18T08:25:02.741Z,45.00
2018-09-18T08:27:32.056Z,45.00
2018-09-18T08:32:30.030Z,44.50
2018-09-18T08:34:58.813Z,44.40
2018-09-18T08:39:58.993Z,44.10
2018-09-18T08:42:28.205Z,43.90
2018-09-18T08:44:58.935Z,43.70
2018-09-18T08:47:28.082Z,43.50
2018-09-18T08:49:59.092Z,43.40
2018-09-18T08:52:27.761Z,43.50
2018-09-18T08:57:27.471Z,43.10
2018-09-18T08:59:56.133Z,42.90
2018-09-18T09:04:57.353Z,43.10
2018-09-18T09:07:25.940Z,43.50
2018-09-18T09:09:54.878Z,42.90
2018-09-18T09:12:23.736Z,42.60
2018-09-18T09:14:52.361Z,43.10
2018-09-18T09:17:20.879Z,42.10
2018-09-18T09:19:49.531Z,42.10
2018-09-18T09:22:18.408Z,41.80
2018-09-18T09:24:47.280Z,41.80
2018-09-18T09:27:15.824Z,41.70
2018-09-18T09:29:44.380Z,40.70
2018-09-18T09:32:14.148Z,42.20
2018-09-18T09:34:42.695Z,41.20
2018-09-18T09:37:11.383Z,41.30
2018-09-18T09:39:39.833Z,41.10
2018-09-18T09:42:08.378Z,41.10
2018-09-18T09:44:36.920Z,40.90
2018-09-18T09:47:05.674Z,40.80
2018-09-18T09:52:02.641Z,40.90
2018-09-18T09:54:32.937Z,40.80
2018-09-18T09:57:02.404Z,40.70
2018-09-18T09:59:30.920Z,40.50
2018-09-18T10:02:04.637Z,40.30
2018-09-18T10:04:33.173Z,40.40
2018-09-18T10:07:01.751Z,40.20
2018-09-18T10:09:30.269Z,40.00
2018-09-18T10:11:58.808Z,40.00
2018-09-18T10:14:28.463Z,40.00
2018-09-18T10:21:55.232Z,39.70
2018-09-18T10:24:25.025Z,39.50
2018-09-18T10:26:53.821Z,39.50
2018-09-18T10:29:22.516Z,39.20
2018-09-18T10:31:51.102Z,39.20
2018-09-18T10:34:21.621Z,39.40
2018-09-18T10:36:50.749Z,39.40
2018-09-18T10:39:19.558Z,39.40
2018-09-18T10:41:48.138Z,39.50
2018-09-18T10:44:16.752Z,39.50
2018-09-18T10:46:45.468Z,39.40
2018-09-18T10:51:43.545Z,39.40
2018-09-18T10:54:12.508Z,39.30
2018-09-18T10:56:41.120Z,39.40
2018-09-18T10:59:09.694Z,39.40
2018-09-18T11:01:38.415Z,39.30
2018-09-18T11:06:36.329Z,39.50
2018-09-18T11:09:07.154Z,39.50
2018-09-18T11:11:35.834Z,39.50
2018-09-18T11:14:04.434Z,39.50
2018-09-18T11:16:33.402Z,39.60
2018-09-18T11:19:02.033Z,39.70
2018-09-18T11:21:30.789Z,39.90
2018-09-18T11:23:59.314Z,39.90
2018-09-18T11:26:27.888Z,38.90
2018-09-18T11:33:48.752Z,38.80
2018-09-18T11:36:17.440Z,37.30
2018-09-18T11:38:45.924Z,37.10
2018-09-18T11:41:14.363Z,36.80
2018-09-18T11:43:43.569Z,35.60
2018-09-18T11:46:12.108Z,35.60
2018-09-18T11:56:32.880Z,34.30
2018-09-18T11:59:01.455Z,34.20
2018-09-18T12:01:30.046Z,34.20
2018-09-18T12:03:58.580Z,33.60
2018-09-18T12:11:26.240Z,34.00
2018-09-18T12:13:54.751Z,34.10
2018-09-18T12:18:53.245Z,34.00
2018-09-18T12:21:21.776Z,33.80
2018-09-18T12:23:50.244Z,34.00
2018-09-18T12:26:18.727Z,33.40
2018-09-18T12:28:47.269Z,33.70
2018-09-18T12:31:15.900Z,33.70
2018-09-18T12:33:44.428Z,32.90
2018-09-18T12:36:16.489Z,32.60
2018-09-18T12:38:45.021Z,32.90
2018-09-18T12:41:16.937Z,32.10
2018-09-18T12:43:45.504Z,32.00
2018-09-18T12:46:13.962Z,32.40
2018-09-18T12:48:43.801Z,32.60
2018-09-18T12:51:12.196Z,32.00
2018-09-18T12:53:40.698Z,31.10
2018-09-18T12:56:09.210Z,31.40
2018-09-18T13:01:05.978Z,30.70
2018-09-18T13:03:34.451Z,30.90
2018-09-18T13:06:03.367Z,31.40
2018-09-18T13:08:32.756Z,31.00
2018-09-18T13:11:01.364Z,31.20
2018-09-18T13:15:58.608Z,32.00
2018-09-18T13:18:28.199Z,32.40
2018-09-18T13:20:57.812Z,32.40
2018-09-18T13:23:26.278Z,32.70
2018-09-18T13:25:55.157Z,32.60
2018-09-18T13:28:23.616Z,32.60
2018-09-18T13:33:20.287Z,31.60
2018-09-18T13:35:48.720Z,31.30
2018-09-18T13:38:17.171Z,30.00
2018-09-18T13:40:45.727Z,29.80
2018-09-18T13:43:14.162Z,29.90
2018-09-18T13:45:42.623Z,30.00
2018-09-18T13:48:11.209Z,30.00
2018-09-18T13:50:39.829Z,30.40
2018-09-18T13:53:08.475Z,30.30
2018-09-18T13:55:37.072Z,30.60
2018-09-18T13:58:05.732Z,30.60
2018-09-18T14:00:34.224Z,30.60
2018-09-18T14:03:02.866Z,31.10
2018-09-18T14:05:31.465Z,30.50
2018-09-18T14:10:28.136Z,29.60
2018-09-18T14:12:56.628Z,29.20
2018-09-18T14:15:25.120Z,29.50
2018-09-18T14:22:50.093Z,29.00
2018-09-18T14:25:18.700Z,29.10
2018-09-18T14:27:47.181Z,28.80
2018-09-18T14:30:15.626Z,28.80
2018-09-18T14:32:44.080Z,28.90
2018-09-18T14:35:12.529Z,28.80
2018-09-18T14:37:41.087Z,28.60
2018-09-18T14:40:09.671Z,28.90
2018-09-18T14:42:38.141Z,29.60
2018-09-18T14:45:06.811Z,29.10
2018-09-18T14:47:35.348Z,29.30
2018-09-18T14:50:03.977Z,29.30
2018-09-18T14:52:32.493Z,29.20
2018-09-18T14:55:00.936Z,29.40
2018-09-18T14:57:29.400Z,29.10
2018-09-18T14:59:57.975Z,29.20
2018-09-18T15:02:26.703Z,29.90
2018-09-18T15:04:55.250Z,29.50
2018-09-18T15:07:23.700Z,29.30
2018-09-18T15:09:52.147Z,29.20
2018-09-18T15:12:20.605Z,29.50
2018-09-18T15:19:16.630Z,29.00
2018-09-18T15:21:45.127Z,29.20
2018-09-18T15:24:13.596Z,29.10
2018-09-18T15:29:10.209Z,29.40
2018-09-18T15:31:38.678Z,30.00
2018-09-18T15:34:07.223Z,30.30
2018-09-18T15:36:35.962Z,31.00
2018-09-18T15:39:06.729Z,30.10
2018-09-18T15:41:35.282Z,29.80
2018-09-18T15:44:05.728Z,29.70
2018-09-18T15:46:34.694Z,30.40
2018-09-18T15:49:03.199Z,30.20
2018-09-18T15:51:31.668Z,29.90
2018-09-18T15:54:00.236Z,30.00
2018-09-18T15:58:28.550Z,30.10
2018-09-18T16:01:36.264Z,30.10
2018-09-18T16:04:04.803Z,30.20
2018-09-18T16:06:33.288Z,31.00
2018-09-18T16:09:02.554Z,30.40
2018-09-18T16:11:31.092Z,30.80
2018-09-18T16:13:59.652Z,30.70
2018-09-18T16:16:28.256Z,30.90
2018-09-18T16:18:56.774Z,31.20
2018-09-18T16:21:25.726Z,31.20
2018-09-18T16:24:20.481Z,31.10
2018-09-18T16:26:49.028Z,31.50
2018-09-18T16:30:16.802Z,32.10
2018-09-18T16:36:11.827Z,32.30
2018-09-18T16:41:09.043Z,32.70
2018-09-18T16:43:38.232Z,32.80
2018-09-18T16:46:06.902Z,32.90
2018-09-18T16:48:35.537Z,33.40
2018-09-18T16:54:26.881Z,33.10
2018-09-18T16:56:55.491Z,33.50
2018-09-18T16:59:24.127Z,33.40
2018-09-18T17:01:52.727Z,33.40
2018-09-18T17:04:21.279Z,33.60
2018-09-18T17:06:49.939Z,33.00
2018-09-18T17:11:46.725Z,33.70
2018-09-18T17:14:15.202Z,33.70
2018-09-18T17:17:37.676Z,34.00
2018-09-18T17:22:34.659Z,34.00
2018-09-18T17:25:03.090Z,34.30
2018-09-18T17:27:31.752Z,34.40
2018-09-18T17:30:02.131Z,34.90
2018-09-18T17:32:31.050Z,34.90
2018-09-18T17:34:59.634Z,35.10
2018-09-18T17:37:28.220Z,35.30
2018-09-18T17:39:56.794Z,35.60
2018-09-18T17:42:25.254Z,35.80
2018-09-18T17:47:22.029Z,36.10
2018-09-18T17:49:50.618Z,36.20
2018-09-18T17:52:19.213Z,36.40
2018-09-18T17:57:15.949Z,36.60
2018-09-18T17:59:44.562Z,36.70
2018-09-18T18:02:47.569Z,36.90
2018-09-18T18:05:16.118Z,37.10
2018-09-18T18:07:44.590Z,37.30
2018-09-18T18:10:13.126Z,37.40
2018-09-18T18:12:41.616Z,38.60
2018-09-18T18:15:10.149Z,37.60
2018-09-18T18:17:38.831Z,37.70
2018-09-18T18:20:07.491Z,37.90
2018-09-18T18:22:36.009Z,38.00
2018-09-18T18:25:05.161Z,38.10
2018-09-18T18:27:33.864Z,38.30
2018-09-18T18:32:30.539Z,38.90
2018-09-18T18:34:59.144Z,39.00
2018-09-18T18:37:27.666Z,39.30
2018-09-18T18:39:57.285Z,39.30
2018-09-18T18:44:54.021Z,39.40
2018-09-18T18:47:22.821Z,39.40
2018-09-18T18:49:51.447Z,39.70
2018-09-18T18:52:20.164Z,39.80
2018-09-18T18:54:49.710Z,39.90
2018-09-18T18:57:18.236Z,39.90
2018-09-18T18:59:46.749Z,39.90
2018-09-18T19:02:15.266Z,39.90
2018-09-18T19:04:43.761Z,40.00
2018-09-18T19:07:12.288Z,39.90
2018-09-18T19:09:40.833Z,39.90
2018-09-18T19:12:09.393Z,40.00
2018-09-18T19:14:37.881Z,40.00
2018-09-18T19:17:06.351Z,40.10
2018-09-18T19:19:34.859Z,40.20
2018-09-18T19:22:03.357Z,40.40
2018-09-18T19:24:32.116Z,40.40
2018-09-18T19:27:00.677Z,40.50
2018-09-18T19:29:29.224Z,40.60
2018-09-18T19:31:57.691Z,40.70
2018-09-18T19:34:26.333Z,40.80
2018-09-18T19:36:54.841Z,40.80
2018-09-18T19:39:23.446Z,40.90
2018-09-18T19:41:51.994Z,40.90
2018-09-18T19:44:20.528Z,41.00
2018-09-18T19:46:49.048Z,40.90
2018-09-18T19:54:07.838Z,41.00
2018-09-18T20:04:27.477Z,41.30
2018-09-18T20:31:11.684Z,41.30
2018-09-18T20:33:40.251Z,43.60
2018-09-18T20:36:09.920Z,43.20
2018-09-18T20:38:38.521Z,42.90
2018-09-18T20:41:07.207Z,42.90
2018-09-18T20:43:36.144Z,42.70
2018-09-18T20:46:04.805Z,42.80
2018-09-18T20:48:33.383Z,42.70
2018-09-18T20:51:02.021Z,42.80
2018-09-18T20:53:30.707Z,42.80
2018-09-18T20:55:59.406Z,43.00
2018-09-18T20:58:27.911Z,43.10
2018-09-18T21:00:56.396Z,43.10
2018-09-18T21:03:25.065Z,43.40
2018-09-18T21:05:53.745Z,43.40
2018-09-18T21:08:22.546Z,43.40
2018-09-18T21:10:51.055Z,43.50
2018-09-18T21:13:19.617Z,44.00
2018-09-18T21:15:48.304Z,43.90
2018-09-18T21:18:16.853Z,44.20
2018-09-18T21:20:45.521Z,44.40
2018-09-18T21:23:14.052Z,44.40
2018-09-18T21:26:18.315Z,44.60
2018-09-18T21:31:15.286Z,44.90
2018-09-18T21:36:12.149Z,45.70
2018-09-18T21:38:40.751Z,45.80
2018-09-18T21:41:09.258Z,45.90
2018-09-18T21:43:37.845Z,46.90
2018-09-18T21:46:06.395Z,46.20
2018-09-18T21:48:35.020Z,46.20
2018-09-18T21:51:03.757Z,46.40
2018-09-18T21:53:32.367Z,46.50
2018-09-18T21:56:00.936Z,46.60
2018-09-18T21:58:29.540Z,46.70
2018-09-18T22:01:02.364Z,46.80
2018-09-18T22:03:31.107Z,47.00
2018-09-18T22:05:59.725Z,47.20
2018-09-18T22:08:28.393Z,47.40
2018-09-18T22:10:58.031Z,47.50
2018-09-18T22:13:26.988Z,47.60
2018-09-18T22:15:56.593Z,47.60
2018-09-18T22:18:28.655Z,47.70
2018-09-18T22:21:06.354Z,47.70
2018-09-18T22:23:34.914Z,47.70
2018-09-18T22:26:03.408Z,47.80
2018-09-18T22:28:32.164Z,47.70
2018-09-18T22:31:00.840Z,47.80
2018-09-18T22:33:29.555Z,47.90
2018-09-18T22:35:58.185Z,48.40
2018-09-18T22:40:55.051Z,48.30
2018-09-18T22:45:51.936Z,48.30
2018-09-18T22:48:20.477Z,48.40
2018-09-18T22:50:48.987Z,48.40
2018-09-18T22:53:17.617Z,48.40
2018-09-18T22:55:47.214Z,48.70
2018-09-18T22:58:16.056Z,48.60
2018-09-18T23:03:13.937Z,48.80
2018-09-18T23:05:45.552Z,49.00
2018-09-18T23:08:14.132Z,48.90
2018-09-18T23:10:42.694Z,49.00
2018-09-18T23:13:11.251Z,49.30
2018-09-18T23:15:39.755Z,49.30
2018-09-18T23:18:08.410Z,49.20
2018-09-18T23:20:36.991Z,49.20
2018-09-18T23:25:33.767Z,49.20
2018-09-18T23:28:02.366Z,49.80
2018-09-18T23:30:30.903Z,49.40
2018-09-18T23:32:59.868Z,49.40
2018-09-18T23:35:28.434Z,49.60
2018-09-18T23:37:56.971Z,49.80
2018-09-18T23:40:25.645Z,49.90
2018-09-18T23:45:22.321Z,50.00
2018-09-18T23:47:50.856Z,50.10
2018-09-18T23:50:20.200Z,50.40
2018-09-18T23:52:49.087Z,50.40
2018-09-18T23:55:17.708Z,50.60
